Time;durP1;ratioP1;P1;durP2;ratioP2;P2;SDS_P1;SDS_P2;PMS_P1;PMS_P2;Temp;Humidity;BMP_temperature;BMP_pressure;BME280_temperature;BME280_humidity;BME280_pressure;Samples;Min_cycle;Max_cycle;Signal;HPM_P1;HPM_P2
2022/10/19 00:01:11;;;;;;;14.75;3.78;;;;;;;11.91;83.86;102940.09;5045637;28;20029;-74
2022/10/19 00:03:37;;;;;;;10.70;3.47;;;;;;;11.85;83.50;102934.59;5046668;28;20021;-74
2022/10/19 00:06:32;;;;;;;11.77;3.13;;;;;;;11.99;82.81;102931.06;5053232;28;20075;-74
2022/10/19 00:09:10;;;;;;;12.88;3.67;;;;;;;11.83;82.62;102929.34;5029174;28;20696;-74
2022/10/19 00:11:39;;;;;;;16.23;3.20;;;;;;;11.74;82.70;102929.69;5044673;28;20029;-74
2022/10/19 00:14:05;;;;;;;7.82;3.58;;;;;;;11.72;83.00;102926.13;5049350;28;20045;-74
2022/10/19 00:16:34;;;;;;;11.73;3.72;;;;;;;11.66;83.22;102924.91;5026361;28;20033;-74
2022/10/19 00:19:02;;;;;;;12.93;3.47;;;;;;;11.69;83.02;102919.91;5040935;28;20025;-74
2022/10/19 00:21:28;;;;;;;13.52;3.20;;;;;;;11.67;82.95;102917.25;5041993;28;20100;-74
2022/10/19 00:23:54;;;;;;;10.88;3.30;;;;;;;11.73;84.02;102925.31;5046891;28;20065;-74
2022/10/19 00:26:19;;;;;;;12.32;3.53;;;;;;;11.69;83.83;102920.78;5050587;28;20468;-74
2022/10/19 00:28:44;;;;;;;11.98;3.17;;;;;;;11.74;84.52;102923.63;5020646;28;20519;-74
2022/10/19 00:31:14;;;;;;;12.02;3.03;;;;;;;11.77;84.69;102926.41;5037945;28;20041;-74
2022/10/19 00:33:40;;;;;;;14.73;3.20;;;;;;;11.81;84.48;102918.94;5041282;28;20026;-74
2022/10/19 00:36:13;;;;;;;11.35;3.03;;;;;;;11.73;85.03;102915.00;5051799;28;20483;-74
2022/10/19 00:38:40;;;;;;;11.88;2.80;;;;;;;11.71;85.36;102911.47;5045680;28;20029;-74
2022/10/19 00:41:05;;;;;;;13.23;2.72;;;;;;;11.72;85.09;102907.22;5043635;28;20151;-74
2022/10/19 00:43:31;;;;;;;14.52;3.03;;;;;;;11.72;85.20;102917.50;5044635;28;20064;-73
2022/10/19 00:45:56;;;;;;;15.15;2.60;;;;;;;11.69;85.11;102907.03;5046411;28;20115;-74
2022/10/19 00:48:26;;;;;;;10.73;2.58;;;;;;;11.71;85.44;102918.28;5045203;28;20032;-74
2022/10/19 00:50:54;;;;;;;14.95;2.50;;;;;;;11.74;85.09;102914.22;5046360;28;20025;-74
2022/10/19 00:53:20;;;;;;;17.73;3.28;;;;;;;11.70;85.26;102917.41;5047628;28;20540;-74
2022/10/19 00:55:46;;;;;;;14.05;2.85;;;;;;;11.71;85.00;102911.47;5050406;28;20021;-74
2022/10/19 00:58:12;;;;;;;8.65;2.40;;;;;;;11.69;85.10;102913.06;5050046;28;20394;-74
2022/10/19 01:00:38;;;;;;;12.68;3.03;;;;;;;11.58;85.54;102903.84;5049622;28;20033;-74
2022/10/19 01:03:05;;;;;;;13.13;2.85;;;;;;;11.58;85.61;102921.88;5044916;28;20060;-74
2022/10/19 01:05:32;;;;;;;12.38;2.58;;;;;;;11.60;85.71;102921.97;5034253;28;20080;-74
2022/10/19 01:07:58;;;;;;;14.27;2.90;;;;;;;11.42;86.39;102917.56;5052287;28;20036;-74
2022/10/19 01:10:34;;;;;;;13.98;2.83;;;;;;;11.40;86.95;102918.25;5043463;28;20059;-74
2022/10/19 01:13:20;;;;;;;9.77;2.58;;;;;;;11.41;86.88;102914.91;5031229;28;20044;-74
2022/10/19 01:16:07;;;;;;;6.97;2.53;;;;;;;11.40;86.57;102913.97;5046048;28;20041;-74
2022/10/19 01:18:44;;;;;;;12.85;3.00;;;;;;;11.37;86.64;102907.78;5031312;28;20033;-74
2022/10/19 01:21:20;;;;;;;12.65;2.65;;;;;;;11.39;86.47;102906.16;5024325;28;20050;-74
2022/10/19 01:24:02;;;;;;;17.67;2.58;;;;;;;11.44;86.18;102909.91;5051486;28;20066;-74
2022/10/19 01:26:49;;;;;;;10.07;2.40;;;;;;;11.45;85.94;102909.09;5049406;28;20070;-73
2022/10/19 01:29:52;;;;;;;9.75;2.60;;;;;;;11.51;85.79;102909.44;5044721;28;20069;-74
2022/10/19 01:32:39;;;;;;;13.07;2.78;;;;;;;11.46;85.45;102901.44;5043073;28;20395;-73
2022/10/19 01:35:23;;;;;;;10.55;2.97;;;;;;;11.36;85.73;102909.47;5041528;28;20454;-74
2022/10/19 01:38:04;;;;;;;9.50;2.70;;;;;;;11.32;86.02;102898.91;5026158;28;20043;-74
2022/10/19 01:40:29;;;;;;;7.57;2.60;;;;;;;11.35;85.55;102909.41;5039383;28;20037;-74
2022/10/19 01:42:59;;;;;;;12.75;2.80;;;;;;;11.40;85.19;102910.50;5046042;28;20029;-74
2022/10/19 01:45:32;;;;;;;11.52;2.88;;;;;;;11.25;85.60;102908.84;5047328;28;20032;-74
2022/10/19 01:48:12;;;;;;;10.18;2.90;;;;;;;11.41;85.25;102909.75;5047793;28;20376;-74
2022/10/19 01:50:56;;;;;;;8.70;2.50;;;;;;;11.35;84.99;102897.41;5044924;28;20051;-74
2022/10/19 01:53:24;;;;;;;8.63;2.72;;;;;;;11.30;84.79;102898.81;5045703;28;20021;-74
2022/10/19 01:55:51;;;;;;;10.48;2.88;;;;;;;11.33;84.61;102898.09;5046053;28;20768;-74
2022/10/19 01:58:23;;;;;;;13.43;2.60;;;;;;;11.33;84.84;102904.13;5047314;28;20049;-74
2022/10/19 02:00:50;;;;;;;9.20;2.70;;;;;;;11.25;84.84;102905.38;5047580;28;20116;-74
2022/10/19 02:03:18;;;;;;;12.38;2.83;;;;;;;11.21;84.36;102894.00;5049956;28;20064;-74
2022/10/19 02:05:45;;;;;;;12.15;2.90;;;;;;;11.19;84.64;102897.31;5032041;28;20022;-74
2022/10/19 02:08:16;;;;;;;12.07;3.00;;;;;;;11.17;84.78;102876.63;5045330;28;20127;-74
2022/10/19 02:10:43;;;;;;;10.95;3.28;;;;;;;11.25;84.54;102885.66;5044263;28;20056;-74
2022/10/19 02:13:10;;;;;;;12.98;2.72;;;;;;;11.05;84.80;102886.22;5037309;28;20029;-74
2022/10/19 02:15:39;;;;;;;12.95;2.95;;;;;;;11.09;84.90;102884.69;5042023;28;20071;-74
2022/10/19 02:18:07;;;;;;;14.70;2.90;;;;;;;11.14;84.95;102875.56;5021085;28;20080;-74
2022/10/19 02:20:35;;;;;;;11.15;2.70;;;;;;;11.13;85.12;102876.34;5041242;28;20090;-74
2022/10/19 02:23:03;;;;;;;11.80;2.80;;;;;;;11.11;84.93;102868.56;5032480;28;20041;-74
2022/10/19 02:25:29;;;;;;;9.35;2.83;;;;;;;11.03;84.56;102862.06;5044202;28;20033;-74
2022/10/19 02:27:54;;;;;;;10.02;2.90;;;;;;;11.06;84.47;102861.34;5042086;28;20175;-74
2022/10/19 02:30:21;;;;;;;10.30;2.88;;;;;;;11.01;84.32;102856.81;5045888;28;20044;-74
2022/10/19 02:32:46;;;;;;;9.75;3.08;;;;;;;11.05;84.48;102859.59;5047151;28;20111;-74
2022/10/19 02:35:13;;;;;;;9.85;2.80;;;;;;;10.95;84.77;102853.00;5046520;28;20167;-74
2022/10/19 02:37:39;;;;;;;8.32;2.72;;;;;;;10.93;84.87;102842.63;5024834;28;20036;-74
2022/10/19 02:40:05;;;;;;;12.10;2.80;;;;;;;10.94;84.90;102852.13;5032457;28;20033;-74
2022/10/19 02:42:48;;;;;;;9.88;2.65;;;;;;;11.04;85.27;102845.81;5043956;28;20028;-74
2022/10/19 02:45:38;;;;;;;9.93;2.90;;;;;;;11.07;84.63;102834.81;5049102;28;20033;-74
2022/10/19 02:48:11;;;;;;;7.18;2.83;;;;;;;11.09;84.73;102853.78;5042865;28;20024;-74
2022/10/19 02:50:36;;;;;;;10.05;2.95;;;;;;;10.99;84.69;102849.81;5048865;28;20032;-74
2022/10/19 02:53:02;;;;;;;9.45;2.90;;;;;;;11.00;84.39;102841.28;5031090;28;20029;-74
2022/10/19 02:55:29;;;;;;;9.23;3.10;;;;;;;10.99;84.47;102847.25;5051863;28;20021;-74
2022/10/19 02:57:56;;;;;;;10.05;2.97;;;;;;;10.92;84.49;102838.28;5045996;28;20037;-74
2022/10/19 03:00:21;;;;;;;10.88;3.35;;;;;;;10.89;84.51;102845.81;5043515;28;20048;-74
2022/10/19 03:02:47;;;;;;;11.60;3.22;;;;;;;10.92;84.56;102850.25;5034518;28;20036;-74
2022/10/19 03:05:12;;;;;;;11.73;3.08;;;;;;;10.92;84.73;102856.31;5048236;28;20078;-74
2022/10/19 03:07:38;;;;;;;9.18;3.42;;;;;;;10.96;84.10;102849.63;5044661;28;20065;-74
2022/10/19 03:10:03;;;;;;;10.63;2.75;;;;;;;10.96;84.32;102847.94;5027113;28;20415;-74
2022/10/19 03:12:29;;;;;;;8.02;3.15;;;;;;;10.95;84.02;102842.72;5050710;28;20043;-74
2022/10/19 03:14:54;;;;;;;9.25;2.90;;;;;;;10.80;84.19;102839.22;5045421;28;20053;-74
2022/10/19 03:17:19;;;;;;;10.98;2.90;;;;;;;10.78;84.67;102845.97;5029540;28;20069;-74
2022/10/19 03:19:45;;;;;;;9.48;3.08;;;;;;;10.84;84.38;102843.78;5037350;28;20033;-74
2022/10/19 03:22:12;;;;;;;10.38;2.95;;;;;;;10.84;84.44;102847.22;5024611;28;20389;-74
2022/10/19 03:24:37;;;;;;;12.48;3.15;;;;;;;10.74;84.39;102838.09;5047391;28;20426;-74
2022/10/19 03:27:02;;;;;;;9.82;3.42;;;;;;;10.70;84.84;102836.13;5023284;28;20040;-74
2022/10/19 03:29:28;;;;;;;8.25;3.42;;;;;;;10.65;84.69;102839.22;5027877;28;20071;-74
2022/10/19 03:31:54;;;;;;;10.02;3.10;;;;;;;10.67;84.73;102838.50;5034741;28;20056;-74
2022/10/19 03:34:19;;;;;;;11.07;3.10;;;;;;;10.62;85.17;102836.50;5043025;28;20037;-75
2022/10/19 03:36:45;;;;;;;10.23;3.40;;;;;;;10.64;84.70;102840.03;5049456;28;20393;-75
2022/10/19 03:39:12;;;;;;;7.13;2.72;;;;;;;10.62;85.00;102839.94;5044042;28;20033;-75
2022/10/19 03:41:38;;;;;;;16.05;3.33;;;;;;;10.67;84.57;102842.78;5048697;28;20029;-75
2022/10/19 03:44:05;;;;;;;8.93;2.83;;;;;;;10.68;84.29;102842.88;5050103;28;20036;-75
2022/10/19 03:46:31;;;;;;;7.82;2.88;;;;;;;10.70;84.41;102840.41;5051672;28;20041;-75
2022/10/19 03:48:56;;;;;;;12.30;2.70;;;;;;;10.70;84.04;102841.28;5044842;28;20075;-75
2022/10/19 03:51:24;;;;;;;6.80;3.05;;;;;;;10.71;84.15;102842.16;5048475;28;20032;-75
2022/10/19 03:53:54;;;;;;;9.25;3.13;;;;;;;10.67;84.65;102847.91;5036851;28;20167;-75
2022/10/19 03:56:23;;;;;;;12.85;3.45;;;;;;;10.65;84.29;102849.53;5043616;28;20840;-75
2022/10/19 03:58:50;;;;;;;11.00;2.80;;;;;;;10.68;83.83;102855.75;5039933;28;20024;-75
2022/10/19 04:01:19;;;;;;;9.98;2.95;;;;;;;10.65;84.30;102850.41;5045752;28;20025;-75
2022/10/19 04:03:45;;;;;;;6.95;2.70;;;;;;;10.61;83.69;102844.97;5029591;28;20086;-75
2022/10/19 04:06:13;;;;;;;12.05;3.40;;;;;;;10.57;83.80;102851.66;5046798;28;20037;-75
2022/10/19 04:08:39;;;;;;;9.05;3.03;;;;;;;10.56;83.52;102855.03;5042443;28;20122;-75
2022/10/19 04:11:09;;;;;;;10.02;2.50;;;;;;;10.58;83.50;102848.28;5051601;28;20119;-75
2022/10/19 04:13:35;;;;;;;6.57;2.75;;;;;;;10.50;83.34;102856.34;5052680;28;20541;-75
2022/10/19 04:16:00;;;;;;;7.85;3.03;;;;;;;10.51;84.08;102850.41;5024740;28;20037;-75
2022/10/19 04:18:26;;;;;;;11.18;3.00;;;;;;;10.55;84.11;102848.06;5029203;28;20021;-75
2022/10/19 04:20:56;;;;;;;12.20;3.00;;;;;;;10.53;84.10;102852.25;5043285;28;20036;-75
2022/10/19 04:23:22;;;;;;;6.80;2.53;;;;;;;10.51;83.45;102846.13;5025577;28;20041;-75
2022/10/19 04:25:47;;;;;;;13.57;2.95;;;;;;;10.50;83.86;102841.78;5047388;28;20033;-75
2022/10/19 04:28:13;;;;;;;7.65;2.92;;;;;;;10.48;83.88;102853.66;5037893;28;20519;-75
2022/10/19 04:30:38;;;;;;;8.27;2.90;;;;;;;10.45;83.82;102840.63;5045468;28;20052;-75
2022/10/19 04:33:03;;;;;;;9.98;2.80;;;;;;;10.40;84.17;102842.03;5045377;28;20123;-75
2022/10/19 04:35:29;;;;;;;6.60;2.42;;;;;;;10.42;84.18;102835.28;5027270;28;20025;-75
2022/10/19 04:37:54;;;;;;;7.72;2.65;;;;;;;10.39;84.11;102837.69;5042167;28;20066;-75
2022/10/19 04:40:19;;;;;;;7.53;2.80;;;;;;;10.32;84.36;102840.69;5048265;28;20086;-75
2022/10/19 04:42:45;;;;;;;9.10;3.10;;;;;;;10.27;84.56;102839.50;5041964;28;20028;-75
2022/10/19 04:45:10;;;;;;;11.23;2.72;;;;;;;10.27;84.73;102839.50;5044521;28;20042;-75
2022/10/19 04:47:36;;;;;;;12.70;2.85;;;;;;;10.33;84.73;102840.78;5047534;28;20075;-74
2022/10/19 04:50:01;;;;;;;8.02;2.90;;;;;;;10.37;84.58;102841.81;5043688;28;20032;-75
2022/10/19 04:52:26;;;;;;;8.70;2.83;;;;;;;10.40;84.26;102829.16;5041580;28;20491;-75
2022/10/19 04:54:52;;;;;;;9.98;2.70;;;;;;;10.31;84.30;102841.44;5050392;28;20021;-75
2022/10/19 04:57:17;;;;;;;8.55;2.58;;;;;;;10.31;84.58;102836.31;5049748;28;20119;-75
2022/10/19 04:59:42;;;;;;;7.70;2.80;;;;;;;10.36;84.10;102838.38;5042771;28;20502;-75
2022/10/19 05:02:08;;;;;;;9.48;2.70;;;;;;;10.31;84.50;102844.03;5034657;28;20487;-75
2022/10/19 05:04:33;;;;;;;9.77;2.60;;;;;;;10.25;84.66;102844.53;5037881;28;20411;-75
2022/10/19 05:06:58;;;;;;;6.20;2.55;;;;;;;10.30;83.67;102831.97;5044959;28;20124;-75
2022/10/19 05:09:24;;;;;;;13.82;2.95;;;;;;;10.20;84.73;102843.38;5050529;28;20044;-75
2022/10/19 05:11:50;;;;;;;10.30;2.90;;;;;;;10.12;84.99;102832.59;5043399;28;20033;-75
2022/10/19 05:14:15;;;;;;;7.18;2.50;;;;;;;10.16;84.93;102844.84;5031729;28;20072;-75
2022/10/19 05:16:40;;;;;;;6.93;2.83;;;;;;;10.16;85.12;102842.28;5040143;28;20470;-75
2022/10/19 05:19:06;;;;;;;8.68;2.72;;;;;;;10.07;84.85;102833.09;5023615;28;20029;-75
2022/10/19 05:21:31;;;;;;;8.75;3.00;;;;;;;10.12;85.30;102837.72;5049922;28;20070;-76
2022/10/19 05:23:57;;;;;;;9.98;3.17;;;;;;;10.15;85.38;102834.47;5039549;28;20069;-76
2022/10/19 05:26:25;;;;;;;9.10;3.22;;;;;;;10.09;85.27;102822.13;5050875;28;20107;-75
2022/10/19 05:29:00;;;;;;;8.45;2.95;;;;;;;10.15;85.32;102827.66;5043228;28;20025;-75
2022/10/19 05:31:34;;;;;;;8.20;2.90;;;;;;;10.11;85.45;102817.97;5047079;28;20056;-75
2022/10/19 05:34:02;;;;;;;7.70;2.80;;;;;;;10.07;85.19;102820.25;5022966;28;20029;-76
2022/10/19 05:36:33;;;;;;;11.80;3.00;;;;;;;10.05;85.08;102816.72;5036316;28;20028;-76
2022/10/19 05:39:02;;;;;;;11.18;2.70;;;;;;;10.03;85.29;102808.91;5044590;28;20502;-76
2022/10/19 05:41:27;;;;;;;11.07;3.05;;;;;;;10.03;85.72;102808.91;5042744;28;20060;-76
2022/10/19 05:43:55;;;;;;;9.32;3.28;;;;;;;9.98;85.79;102810.31;5041141;28;20387;-75
2022/10/19 05:46:22;;;;;;;7.82;2.90;;;;;;;9.98;85.47;102820.59;5051587;28;20037;-75
2022/10/19 05:48:48;;;;;;;8.70;2.80;;;;;;;9.87;85.63;102809.63;5047376;28;20104;-75
2022/10/19 05:51:16;;;;;;;10.25;2.65;;;;;;;9.88;85.59;102813.09;5049174;28;20111;-75
2022/10/19 05:53:42;;;;;;;9.55;3.03;;;;;;;9.93;85.55;102817.72;5046055;28;20024;-75
2022/10/19 05:56:12;;;;;;;10.57;3.55;;;;;;;9.91;85.93;102810.72;5044432;28;20029;-76
2022/10/19 05:58:37;;;;;;;6.80;2.97;;;;;;;9.96;85.75;102803.31;5049358;28;20048;-76
2022/10/19 06:01:03;;;;;;;9.20;3.22;;;;;;;9.98;85.08;102810.31;5033733;28;20036;-76
2022/10/19 06:03:29;;;;;;;10.57;3.00;;;;;;;9.97;84.74;102802.50;5042844;28;20139;-76
2022/10/19 06:05:55;;;;;;;10.20;2.70;;;;;;;9.96;84.81;102814.47;5046505;28;20139;-75
2022/10/19 06:08:22;;;;;;;9.50;3.08;;;;;;;9.96;85.11;102817.03;5052483;28;20090;-76
2022/10/19 06:10:48;;;;;;;10.13;3.13;;;;;;;9.98;84.31;102814.56;5036161;28;20025;-76
2022/10/19 06:13:15;;;;;;;8.85;3.15;;;;;;;9.97;84.56;102813.69;5045982;28;21847;-72
2022/10/19 06:15:41;;;;;;;8.65;2.92;;;;;;;9.98;84.83;102807.72;5048964;28;20449;-72
2022/10/19 06:18:08;;;;;;;7.47;2.55;;;;;;;9.94;84.55;102805.75;5028735;28;20033;-72
2022/10/19 06:20:39;;;;;;;8.45;3.13;;;;;;;9.93;84.74;102811.69;5051559;28;20031;-71
2022/10/19 06:23:05;;;;;;;11.48;3.50;;;;;;;9.91;85.17;102806.47;5047753;28;20024;-70
2022/10/19 06:25:33;;;;;;;7.03;3.10;;;;;;;9.92;85.48;102795.41;5047202;28;20072;-71
2022/10/19 06:28:00;;;;;;;6.22;3.35;;;;;;;9.94;85.04;102801.50;5043229;28;20434;-71
2022/10/19 06:30:26;;;;;;;6.47;2.72;;;;;;;9.93;85.59;102801.41;5052652;28;20120;-71
2022/10/19 06:32:52;;;;;;;8.73;3.40;;;;;;;9.93;85.39;102796.28;5035663;28;20120;-71
2022/10/19 06:35:17;;;;;;;10.18;3.40;;;;;;;9.88;85.22;102795.09;5048812;28;20397;-71
2022/10/19 06:37:43;;;;;;;8.30;3.28;;;;;;;9.91;85.62;102795.31;5048966;28;20705;-71
2022/10/19 06:40:09;;;;;;;12.88;3.63;;;;;;;9.82;86.03;102798.19;5046839;28;20021;-71
2022/10/19 06:42:38;;;;;;;10.20;3.35;;;;;;;9.83;86.34;102801.66;5051589;28;20028;-70
2022/10/19 06:45:05;;;;;;;9.80;3.78;;;;;;;9.87;86.34;102806.19;5033235;28;20045;-71
2022/10/19 06:47:31;;;;;;;9.05;4.72;;;;;;;9.80;86.99;102809.16;5030536;28;20124;-71
2022/10/19 06:49:57;;;;;;;11.60;4.30;;;;;;;9.79;86.89;102808.28;5029589;28;20038;-71
2022/10/19 06:52:22;;;;;;;12.07;4.70;;;;;;;9.70;87.01;102807.69;5044472;28;20033;-71
2022/10/19 06:54:48;;;;;;;9.32;4.30;;;;;;;9.79;86.98;102812.53;5044963;28;21326;-71
2022/10/19 06:57:13;;;;;;;10.77;4.40;;;;;;;9.72;87.08;102815.53;5030672;28;20040;-70
2022/10/19 06:59:38;;;;;;;11.90;3.88;;;;;;;9.68;87.55;102825.59;5047843;28;20491;-70
2022/10/19 07:02:04;;;;;;;8.15;3.72;;;;;;;9.66;87.63;102816.91;5046719;28;20102;-70
2022/10/19 07:04:29;;;;;;;12.68;4.35;;;;;;;9.71;87.35;102818.84;5042627;28;20044;-70
2022/10/19 07:06:55;;;;;;;6.00;4.03;;;;;;;9.73;88.02;102817.28;5043503;28;20037;-70
2022/10/19 07:09:21;;;;;;;9.73;4.38;;;;;;;9.74;87.94;102801.97;5052348;28;20052;-70
2022/10/19 07:11:47;;;;;;;11.40;4.85;;;;;;;9.67;88.16;102798.13;5045268;28;20484;-70
2022/10/19 07:14:12;;;;;;;11.82;5.57;;;;;;;9.71;88.30;102801.78;5040648;28;20104;-70
2022/10/19 07:16:37;;;;;;;12.60;5.57;;;;;;;9.63;88.63;102808.09;5026638;28;20055;-70
2022/10/19 07:19:03;;;;;;;12.13;5.78;;;;;;;9.72;88.95;102811.28;5015095;28;20044;-70
2022/10/19 07:21:28;;;;;;;11.35;5.53;;;;;;;9.75;88.72;102810.56;5038262;28;20036;-71
2022/10/19 07:23:53;;;;;;;11.60;5.88;;;;;;;9.85;88.43;102815.50;5020427;28;20482;-71
2022/10/19 07:26:23;;;;;;;11.55;5.32;;;;;;;9.72;88.81;102811.28;5028655;28;20043;-72
2022/10/19 07:28:49;;;;;;;10.10;5.55;;;;;;;9.80;89.15;102814.31;5047450;28;20494;-72
2022/10/19 07:31:17;;;;;;;10.40;6.30;;;;;;;9.79;89.39;102825.38;5053456;28;20024;-72
2022/10/19 07:33:43;;;;;;;12.55;5.85;;;;;;;9.87;89.39;102816.47;5052561;28;20181;-72
2022/10/19 07:36:09;;;;;;;10.50;5.63;;;;;;;9.85;89.41;102807.78;5054288;28;20025;-72
2022/10/19 07:38:36;;;;;;;13.55;5.85;;;;;;;9.94;88.73;102809.22;5030903;28;20025;-72
2022/10/19 07:41:08;;;;;;;12.02;5.45;;;;;;;10.00;88.97;102819.00;5053463;28;20468;-72
2022/10/19 07:43:34;;;;;;;13.18;6.00;;;;;;;10.06;88.84;102823.63;5035631;28;20027;-72
2022/10/19 07:46:02;;;;;;;13.38;5.50;;;;;;;10.14;89.02;102819.84;5052093;28;20032;-73
2022/10/19 07:48:28;;;;;;;13.77;6.15;;;;;;;10.15;88.98;102819.06;5052979;28;20071;-72
2022/10/19 07:50:53;;;;;;;10.32;5.97;;;;;;;10.22;89.14;102818.63;5058203;28;20028;-72
2022/10/19 07:53:19;;;;;;;9.98;5.88;;;;;;;10.20;88.63;102809.94;5041135;28;20605;-72
2022/10/19 07:55:44;;;;;;;13.38;5.72;;;;;;;10.20;88.73;102803.13;5049744;28;20024;-72
2022/10/19 07:58:09;;;;;;;13.52;5.63;;;;;;;10.24;89.36;102801.63;5048219;28;20026;-72
2022/10/19 08:00:35;;;;;;;11.10;5.78;;;;;;;10.27;89.23;102795.81;5055085;28;20029;-72
2022/10/19 08:03:00;;;;;;;12.07;5.70;;;;;;;10.28;89.34;102787.28;5051059;28;20574;-72
2022/10/19 08:05:25;;;;;;;9.93;5.32;;;;;;;10.39;88.91;102789.72;5053099;28;20057;-72
2022/10/19 08:07:51;;;;;;;11.13;5.25;;;;;;;10.52;88.42;102788.75;5050321;28;20024;-72
2022/10/19 08:10:16;;;;;;;13.45;5.68;;;;;;;10.73;88.10;102791.66;5059231;28;20033;-72
2022/10/19 08:12:42;;;;;;;12.13;5.10;;;;;;;10.91;87.28;102786.69;5047931;28;20037;-72
2022/10/19 08:15:08;;;;;;;11.25;5.28;;;;;;;11.09;87.24;102792.88;5032592;28;20053;-72
2022/10/19 08:17:37;;;;;;;11.13;5.20;;;;;;;11.29;86.08;102788.88;5034811;28;20452;-72
2022/10/19 08:20:04;;;;;;;9.88;4.88;;;;;;;11.41;85.39;102786.09;5049897;28;20060;-72
2022/10/19 08:22:29;;;;;;;11.93;4.70;;;;;;;11.54;84.98;102789.44;5050409;28;20409;-72
2022/10/19 08:24:54;;;;;;;8.10;4.35;;;;;;;11.64;83.50;102790.78;5044244;28;20036;-72
2022/10/19 08:27:20;;;;;;;8.38;4.50;;;;;;;11.75;83.66;102794.84;5020460;28;20032;-72
2022/10/19 08:29:45;;;;;;;9.75;4.60;;;;;;;12.00;83.44;102793.59;5032800;28;20023;-72
2022/10/19 08:32:11;;;;;;;8.90;4.10;;;;;;;12.02;81.55;102797.19;5049052;28;20073;-72
2022/10/19 08:34:36;;;;;;;8.70;4.10;;;;;;;12.22;81.55;102781.03;5053512;28;20017;-72
2022/10/19 08:37:02;;;;;;;9.25;3.85;;;;;;;12.35;80.83;102777.41;5053978;28;20071;-72
2022/10/19 08:39:28;;;;;;;8.85;3.70;;;;;;;12.50;79.59;102769.56;5055300;28;20075;-72
2022/10/19 08:42:08;;;;;;;10.98;3.80;;;;;;;12.64;79.61;102765.09;5052319;28;20032;-70
2022/10/19 08:44:33;;;;;;;11.15;3.92;;;;;;;12.92;78.67;102759.56;5055663;28;20020;-72
2022/10/19 08:47:13;;;;;;;7.95;3.60;;;;;;;13.13;78.59;102752.88;5047063;28;20033;-70
2022/10/19 08:49:41;;;;;;;10.70;3.90;;;;;;;13.30;77.18;102739.09;5051748;28;20119;-71
2022/10/19 08:52:13;;;;;;;8.60;3.88;;;;;;;13.61;76.93;102753.41;5035269;28;20025;-71
2022/10/19 08:54:56;;;;;;;6.82;3.38;;;;;;;13.85;76.28;102740.72;5051307;28;20075;-71
2022/10/19 08:57:44;;;;;;;9.27;3.60;;;;;;;13.95;74.42;102748.03;5052723;28;20029;-71
2022/10/19 09:00:39;;;;;;;7.28;3.45;;;;;;;14.03;73.36;102743.22;5039876;28;20021;-71
2022/10/19 09:03:04;;;;;;;8.52;3.17;;;;;;;14.08;72.37;102747.78;5035237;28;20118;-71
2022/10/19 09:05:38;;;;;;;8.05;3.10;;;;;;;14.06;72.41;102745.94;5051060;28;20126;-70
2022/10/19 09:08:04;;;;;;;7.65;3.10;;;;;;;14.09;72.22;102741.78;5041342;28;20033;-71
2022/10/19 09:10:39;;;;;;;9.57;2.95;;;;;;;14.26;72.28;102741.63;5043824;28;20116;-71
2022/10/19 09:13:39;;;;;;;14.10;3.25;;;;;;;14.18;72.85;102733.53;5038751;28;20040;-72
2022/10/19 09:16:05;;;;;;;10.77;2.92;;;;;;;14.09;71.89;102736.63;5041896;28;20056;-72
2022/10/19 09:18:34;;;;;;;4.80;2.40;;;;;;;14.04;72.96;102737.25;5039975;28;20037;-72
2022/10/19 09:21:06;;;;;;;8.95;2.45;;;;;;;14.00;72.42;102725.84;5042678;28;20032;-71
2022/10/19 09:23:43;;;;;;;6.35;2.38;;;;;;;14.14;72.41;102719.59;5038223;28;20526;-72
2022/10/19 09:26:15;;;;;;;6.75;2.80;;;;;;;14.17;72.20;102730.06;5042466;28;20056;-71
2022/10/19 09:28:47;;;;;;;8.10;2.33;;;;;;;14.11;72.39;102734.97;5023577;28;20021;-70
2022/10/19 09:31:21;;;;;;;6.57;2.40;;;;;;;14.09;71.47;102733.16;5042951;28;20025;-70
2022/10/19 09:33:54;;;;;;;7.55;2.20;;;;;;;14.14;71.90;102739.41;5036427;28;20033;-71
2022/10/19 09:36:21;;;;;;;12.93;2.63;;;;;;;14.14;72.03;102732.53;5036433;28;20115;-70
2022/10/19 09:38:47;;;;;;;7.57;2.30;;;;;;;14.09;71.65;102734.03;5040524;28;20114;-70
2022/10/19 09:41:17;;;;;;;14.85;2.33;;;;;;;14.13;71.80;102738.50;5043756;28;20475;-70
2022/10/19 09:43:49;;;;;;;9.57;2.60;;;;;;;14.11;71.36;102744.44;5042080;28;20032;-70
2022/10/19 09:46:29;;;;;;;8.45;2.60;;;;;;;14.12;71.95;102730.69;5040703;28;20021;-70
2022/10/19 09:49:00;;;;;;;7.22;2.13;;;;;;;14.07;70.98;102732.19;5037551;28;20047;-70
2022/10/19 09:51:25;;;;;;;9.65;2.47;;;;;;;13.97;71.24;102730.91;5043494;28;20031;-70
2022/10/19 09:53:53;;;;;;;6.88;2.30;;;;;;;14.00;72.50;102730.16;5042926;28;20156;-70
2022/10/19 09:56:26;;;;;;;7.70;2.50;;;;;;;14.01;71.53;102713.81;5042859;28;20036;-71
2022/10/19 09:58:56;;;;;;;5.47;2.00;;;;;;;14.08;71.75;102718.47;5040741;28;20158;-71
2022/10/19 10:01:35;;;;;;;9.02;2.00;;;;;;;14.09;70.91;102720.22;5042070;28;20028;-70
2022/10/19 10:04:05;;;;;;;6.20;1.92;;;;;;;14.09;70.42;102723.69;5041787;28;20029;-71
2022/10/19 10:06:31;;;;;;;7.68;1.85;;;;;;;14.08;69.28;102718.47;5042884;28;20040;-70
2022/10/19 10:08:57;;;;;;;5.63;1.70;;;;;;;14.05;70.05;102711.44;5043962;28;20040;-70
2022/10/19 10:11:27;;;;;;;7.68;1.60;;;;;;;14.03;69.96;102699.25;5042388;28;20029;-70
2022/10/19 10:13:54;;;;;;;6.10;1.60;;;;;;;14.01;70.01;102694.00;5036237;28;20117;-71
2022/10/19 10:16:22;;;;;;;9.73;1.77;;;;;;;14.05;70.63;102692.44;5034329;28;20041;-70
2022/10/19 10:19:02;;;;;;;9.10;1.65;;;;;;;14.09;70.17;102682.28;5041910;28;20095;-70
2022/10/19 10:21:44;;;;;;;5.50;2.15;;;;;;;14.02;69.70;102693.22;5038912;28;20060;-70
2022/10/19 10:24:09;;;;;;;9.02;2.00;;;;;;;14.11;70.34;102692.69;5039403;28;20032;-69
2022/10/19 10:26:47;;;;;;;8.30;1.95;;;;;;;14.15;70.68;102704.97;5044071;28;20063;-70
2022/10/19 10:29:22;;;;;;;9.57;2.10;;;;;;;14.14;70.43;102695.44;5039869;28;20474;-71
2022/10/19 10:31:52;;;;;;;7.45;1.45;;;;;;;14.26;70.92;102698.53;5023152;28;20036;-71
2022/10/19 10:34:31;;;;;;;8.73;2.00;;;;;;;14.27;70.18;102697.72;5038030;28;20116;-69
2022/10/19 10:36:57;;;;;;;10.43;2.45;;;;;;;14.37;70.21;102683.44;5038214;28;20132;-69
2022/10/19 10:39:25;;;;;;;8.88;2.00;;;;;;;14.44;69.75;102694.13;5036384;28;20542;-70
2022/10/19 10:41:52;;;;;;;12.17;2.10;;;;;;;14.44;69.30;102690.66;5045611;28;20052;-71
2022/10/19 10:44:29;;;;;;;8.02;1.90;;;;;;;14.39;68.94;102689.59;5037685;28;20302;-70
2022/10/19 10:46:57;;;;;;;12.05;2.00;;;;;;;14.47;69.62;102683.03;5039854;28;20488;-70
2022/10/19 10:49:27;;;;;;;10.63;2.00;;;;;;;14.51;69.12;102676.28;5041677;28;20037;-71
2022/10/19 10:52:16;;;;;;;5.55;1.80;;;;;;;14.62;69.89;102670.72;5052462;28;20028;-71
2022/10/19 10:54:56;;;;;;;;;;;;;;;14.73;68.92;102682.38;5050583;28;20079;-71
2022/10/19 10:57:24;;;;;;;8.15;1.88;;;;;;;14.73;68.25;102678.91;5051856;28;19993;-71
2022/10/19 11:00:09;;;;;;;6.38;1.65;;;;;;;14.80;68.76;102673.13;5050103;28;20025;-71
2022/10/19 11:02:50;;;;;;;9.93;1.65;;;;;;;14.95;69.21;102660.81;5051509;28;20501;-72
2022/10/19 11:05:23;;;;;;;11.57;2.10;;;;;;;15.07;68.57;102657.81;5053233;28;20451;-72
2022/10/19 11:07:57;;;;;;;8.80;1.92;;;;;;;15.12;68.06;102647.63;5045117;28;20052;-72
2022/10/19 11:10:29;;;;;;;6.93;1.58;;;;;;;15.17;67.67;102646.97;5051770;28;20116;-72
2022/10/19 11:13:09;;;;;;;6.25;1.70;;;;;;;15.24;66.37;102643.78;5048273;28;20032;-72
2022/10/19 11:15:54;;;;;;;7.63;1.80;;;;;;;15.21;65.26;102653.13;5053468;28;20064;-71
2022/10/19 11:18:35;;;;;;;9.55;2.42;;;;;;;15.35;66.41;102641.59;5044116;28;20021;-71
2022/10/19 11:21:06;;;;;;;8.77;2.15;;;;;;;15.49;65.46;102630.00;5027566;28;20411;-72
2022/10/19 11:23:53;;;;;;;7.65;2.22;;;;;;;15.65;64.74;102634.06;5046982;28;20040;-70
2022/10/19 11:26:19;;;;;;;7.32;2.28;;;;;;;15.91;64.22;102624.59;5051551;28;20586;-71
2022/10/19 11:29:04;;;;;;;9.80;2.47;;;;;;;16.12;64.12;102620.94;5053336;28;20133;-70
2022/10/19 11:31:43;;;;;;;5.88;2.00;;;;;;;16.30;62.89;102625.03;5057036;28;20043;-70
2022/10/19 11:34:30;;;;;;;9.82;2.35;;;;;;;16.48;62.41;102621.25;5054901;28;20016;-70